Time;durP1;ratioP1;P1;durP2;ratioP2;P2;SDS_P1;SDS_P2;PMS_P1;PMS_P2;Temp;Humidity;BMP_temperature;BMP_pressure;BME280_temperature;BME280_humidity;BME280_pressure;Samples;Min_cycle;Max_cycle;Signal;HPM_P1;HPM_P2
2023/05/15 00:00:47;;;;;;;19.52;14.45;;;7.40;99.90;;;;;;6119258;23;20079;-85
2023/05/15 00:03:37;;;;;;;18.90;14.27;;;7.40;99.90;;;;;;6119469;23;20437;-85
2023/05/15 00:06:25;;;;;;;25.48;15.73;;;7.50;99.90;;;;;;6120069;23;20030;-88
2023/05/15 00:09:12;;;;;;;22.27;16.40;;;7.60;99.90;;;;;;6119457;23;20309;-87
2023/05/15 00:12:01;;;;;;;23.92;16.42;;;7.80;99.90;;;;;;6120160;23;20022;-88
2023/05/15 00:14:51;;;;;;;18.65;14.38;;;7.80;99.90;;;;;;6120492;23;20026;-87
2023/05/15 00:17:38;;;;;;;21.13;14.18;;;7.90;99.90;;;;;;6119960;23;20053;-87
2023/05/15 00:20:28;;;;;;;19.13;14.15;;;8.00;99.90;;;;;;6120172;23;20048;-85
2023/05/15 00:23:15;;;;;;;20.80;14.35;;;8.10;99.90;;;;;;6120387;23;20045;-87
2023/05/15 00:26:04;;;;;;;20.58;14.18;;;8.10;99.90;;;;;;6118646;23;20444;-86
2023/05/15 00:28:51;;;;;;;17.83;13.52;;;8.00;99.90;;;;;;6120502;23;20033;-85
2023/05/15 00:31:41;;;;;;;23.23;15.88;;;8.00;99.90;;;;;;6126518;23;20394;-85
2023/05/15 00:34:28;;;;;;;24.73;16.73;;;7.90;99.90;;;;;;6123384;22;20026;-85
2023/05/15 00:37:16;;;;;;;28.20;16.88;;;7.80;99.90;;;;;;6119069;23;20026;-85
2023/05/15 00:40:03;;;;;;;24.83;15.95;;;7.70;99.90;;;;;;6120768;23;20030;-87
2023/05/15 00:42:52;;;;;;;22.60;15.65;;;7.60;99.90;;;;;;6099805;23;20103;-86
2023/05/15 00:45:41;;;;;;;20.17;14.07;;;7.60;99.90;;;;;;6121721;23;20030;-87
2023/05/15 00:48:28;;;;;;;20.35;13.35;;;7.60;99.90;;;;;;6121174;23;20060;-87
2023/05/15 00:51:20;;;;;;;20.02;14.38;;;7.60;99.90;;;;;;6121747;23;20064;-87
2023/05/15 00:54:10;;;;;;;23.52;15.43;;;7.60;99.90;;;;;;6119641;23;20053;-87
2023/05/15 00:56:59;;;;;;;23.75;16.77;;;7.60;99.90;;;;;;6120827;23;20022;-86
2023/05/15 00:59:49;;;;;;;26.55;17.50;;;7.60;99.90;;;;;;6120418;23;20072;-86
2023/05/15 01:02:37;;;;;;;25.42;16.92;;;7.50;99.90;;;;;;6122100;23;20041;-87
2023/05/15 01:05:26;;;;;;;20.13;15.30;;;7.50;99.90;;;;;;6119886;23;20109;-87
2023/05/15 01:08:29;;;;;;;21.80;15.07;;;7.50;99.90;;;;;;6100111;23;20026;-86
2023/05/15 01:11:23;;;;;;;20.47;13.70;;;7.50;99.90;;;;;;6120762;23;20026;-85
2023/05/15 01:14:12;;;;;;;23.33;14.65;;;7.60;99.90;;;;;;6121259;23;20592;-85
2023/05/15 01:17:00;;;;;;;19.65;14.18;;;7.70;99.90;;;;;;6122531;23;20022;-85
2023/05/15 01:19:53;;;;;;;20.13;14.40;;;7.70;99.90;;;;;;6120285;23;20022;-85
2023/05/15 01:22:52;;;;;;;22.83;15.57;;;7.90;99.90;;;;;;6119018;23;20033;-84
2023/05/15 01:26:00;;;;;;;21.92;14.10;;;8.00;99.90;;;;;;6120307;23;20446;-85
2023/05/15 01:28:58;;;;;;;18.88;14.10;;;8.20;99.90;;;;;;6120522;23;20030;-84
2023/05/15 01:31:53;;;;;;;19.23;14.38;;;8.30;99.90;;;;;;6121421;23;20026;-84
2023/05/15 01:34:52;;;;;;;18.27;13.52;;;8.30;99.90;;;;;;6100387;23;20029;-85
2023/05/15 01:37:44;;;;;;;17.67;13.80;;;8.30;99.90;;;;;;6121829;23;20034;-84
2023/05/15 01:40:35;;;;;;;17.27;12.45;;;8.30;99.90;;;;;;6121327;23;20030;-85
2023/05/15 01:43:28;;;;;;;18.27;13.93;;;8.40;99.90;;;;;;6121282;23;20132;-84
2023/05/15 01:46:20;;;;;;;18.42;12.93;;;8.40;99.90;;;;;;6122670;23;20034;-85
2023/05/15 01:49:12;;;;;;;16.88;12.55;;;8.40;99.90;;;;;;6119480;23;20030;-84
2023/05/15 01:52:12;;;;;;;22.23;12.77;;;8.50;99.90;;;;;;6120582;23;20409;-85
2023/05/15 01:55:06;;;;;;;18.10;12.10;;;8.50;99.90;;;;;;6100067;23;20026;-85
2023/05/15 01:57:56;;;;;;;14.52;10.88;;;8.60;99.90;;;;;;6121482;23;20429;-85
2023/05/15 02:00:45;;;;;;;14.15;11.25;;;8.60;99.90;;;;;;6120667;23;20026;-85
2023/05/15 02:03:35;;;;;;;14.13;10.77;;;8.70;99.90;;;;;;6100456;23;20030;-85
2023/05/15 02:06:24;;;;;;;14.32;11.65;;;8.70;99.90;;;;;;6121251;23;20083;-86
2023/05/15 02:09:13;;;;;;;13.30;10.48;;;8.80;99.90;;;;;;6122766;23;20303;-85
2023/05/15 02:12:02;;;;;;;14.35;11.32;;;8.80;99.90;;;;;;6120721;23;20049;-85
2023/05/15 02:14:50;;;;;;;16.17;11.20;;;8.80;99.90;;;;;;6120259;23;20022;-85
2023/05/15 02:17:39;;;;;;;14.27;11.45;;;8.80;99.90;;;;;;6119459;23;20030;-88
2023/05/15 02:20:26;;;;;;;15.15;11.02;;;8.80;99.90;;;;;;6120420;23;20030;-86
2023/05/15 02:23:19;;;;;;;18.52;12.20;;;8.80;99.90;;;;;;6119393;23;20085;-85
2023/05/15 02:26:24;;;;;;;;;;;8.80;99.90;;;;;;6164309;23;20053;-85
2023/05/15 02:29:22;;;;;;;15.50;11.38;;;8.80;99.90;;;;;;6099825;23;19917;-85
2023/05/15 02:32:32;;;;;;;14.60;11.48;;;8.80;99.90;;;;;;6120484;23;20026;-85
2023/05/15 02:35:42;;;;;;;15.80;11.32;;;8.80;99.90;;;;;;6099817;23;20321;-85
2023/05/15 02:38:39;;;;;;;13.80;10.20;;;8.80;99.90;;;;;;6122101;23;20324;-85
2023/05/15 02:41:30;;;;;;;12.80;10.43;;;8.80;99.90;;;;;;6120537;23;20041;-85
2023/05/15 02:44:20;;;;;;;15.30;10.80;;;8.80;99.90;;;;;;6099778;23;20436;-85
2023/05/15 02:47:09;;;;;;;13.10;10.18;;;8.80;99.90;;;;;;6121179;23;20168;-85
2023/05/15 02:49:56;;;;;;;13.07;10.38;;;8.80;99.90;;;;;;6100096;23;20022;-85
2023/05/15 02:52:44;;;;;;;12.20;10.05;;;8.80;99.90;;;;;;6119937;23;20102;-86
2023/05/15 02:55:33;;;;;;;16.88;9.98;;;8.80;99.90;;;;;;6118744;23;20125;-85
2023/05/15 02:58:25;;;;;;;13.60;10.48;;;8.80;99.90;;;;;;6120241;23;20038;-86
2023/05/15 03:01:12;;;;;;;14.52;10.70;;;8.80;99.90;;;;;;6118056;23;20030;-85
2023/05/15 03:04:01;;;;;;;12.68;10.15;;;8.80;99.90;;;;;;6120286;23;20030;-85
2023/05/15 03:06:48;;;;;;;13.77;10.63;;;8.70;99.90;;;;;;6120577;23;20029;-86
2023/05/15 03:09:35;;;;;;;13.18;10.40;;;8.80;99.90;;;;;;6120523;23;20026;-86
2023/05/15 03:12:22;;;;;;;15.18;10.98;;;8.80;99.90;;;;;;6121201;23;20083;-85
2023/05/15 03:15:10;;;;;;;14.80;11.23;;;8.80;99.90;;;;;;6120391;23;20022;-85
2023/05/15 03:17:57;;;;;;;15.98;10.32;;;8.80;99.90;;;;;;6100859;23;20029;-85
2023/05/15 03:20:48;;;;;;;14.40;11.02;;;8.90;99.90;;;;;;6120329;23;20030;-86
2023/05/15 03:23:35;;;;;;;13.10;10.68;;;8.90;99.90;;;;;;6121641;23;20093;-86
2023/05/15 03:26:24;;;;;;;15.45;10.98;;;8.90;99.90;;;;;;6120005;23;20324;-86
2023/05/15 03:29:12;;;;;;;14.50;11.20;;;8.90;99.90;;;;;;6119603;23;20026;-85
2023/05/15 03:32:02;;;;;;;12.05;10.25;;;8.90;99.90;;;;;;6120777;23;20026;-85
2023/05/15 03:34:49;;;;;;;14.32;10.65;;;8.90;99.90;;;;;;6120212;23;20022;-86
2023/05/15 03:37:38;;;;;;;14.27;10.75;;;8.90;99.90;;;;;;6120236;23;20413;-86
2023/05/15 03:40:26;;;;;;;16.52;10.85;;;9.00;99.90;;;;;;6119946;23;20426;-86
2023/05/15 03:43:15;;;;;;;20.45;12.80;;;9.00;99.90;;;;;;6119954;23;20034;-85
2023/05/15 03:46:02;;;;;;;13.27;10.73;;;8.90;99.90;;;;;;6119061;23;20037;-85
2023/05/15 03:48:50;;;;;;;16.88;11.60;;;8.90;99.90;;;;;;6120023;23;20026;-86
2023/05/15 03:51:38;;;;;;;14.90;11.55;;;8.90;99.90;;;;;;6118846;23;20036;-85
2023/05/15 03:54:26;;;;;;;14.23;11.57;;;8.90;99.90;;;;;;6118404;23;20406;-86
2023/05/15 03:57:13;;;;;;;14.05;10.90;;;8.90;99.90;;;;;;6119835;23;20033;-84
2023/05/15 04:00:08;;;;;;;15.27;11.30;;;8.90;99.90;;;;;;6120640;23;20026;-85
2023/05/15 04:02:57;;;;;;;14.65;11.27;;;8.90;99.90;;;;;;6100486;23;20033;-85
2023/05/15 04:05:51;;;;;;;13.10;10.65;;;8.90;99.90;;;;;;6120049;23;20309;-86
2023/05/15 04:08:41;;;;;;;15.35;11.77;;;8.90;99.90;;;;;;6132302;23;20033;-85
2023/05/15 04:11:33;;;;;;;12.80;10.77;;;9.00;99.90;;;;;;6120969;23;20107;-85
2023/05/15 04:14:20;;;;;;;13.80;11.27;;;8.90;99.90;;;;;;6118428;23;20053;-85
2023/05/15 04:17:08;;;;;;;16.00;10.95;;;9.00;99.90;;;;;;6119381;23;20098;-85
2023/05/15 04:19:57;;;;;;;16.58;10.50;;;9.00;99.90;;;;;;6119060;23;20029;-85
2023/05/15 04:22:46;;;;;;;16.65;12.07;;;9.10;99.90;;;;;;6119417;23;20034;-85
2023/05/15 04:25:33;;;;;;;15.02;11.48;;;9.10;99.90;;;;;;6118606;23;20044;-86
2023/05/15 04:28:21;;;;;;;13.65;10.55;;;9.20;99.90;;;;;;6118344;23;20026;-85
2023/05/15 04:31:08;;;;;;;12.55;9.25;;;9.20;99.90;;;;;;6120507;23;20026;-91
2023/05/15 04:33:55;;;;;;;12.07;9.80;;;9.20;99.90;;;;;;6119974;23;20029;-89
2023/05/15 04:36:45;;;;;;;12.57;10.32;;;9.20;99.90;;;;;;6100911;23;20049;-88
2023/05/15 04:39:36;;;;;;;13.93;9.55;;;9.30;99.90;;;;;;6101846;23;20371;-88
2023/05/15 04:42:25;;;;;;;15.90;10.10;;;9.30;99.90;;;;;;6119679;23;20026;-89
2023/05/15 04:45:13;;;;;;;13.10;9.52;;;9.40;99.90;;;;;;6121071;23;20037;-89
2023/05/15 04:48:00;;;;;;;13.60;10.20;;;9.50;99.90;;;;;;6119640;23;20026;-89
2023/05/15 04:50:50;;;;;;;11.95;10.07;;;9.50;99.90;;;;;;6120449;23;20105;-89
2023/05/15 04:53:37;;;;;;;13.35;9.68;;;9.50;99.90;;;;;;6100670;23;20037;-89
2023/05/15 04:56:25;;;;;;;13.88;9.82;;;9.40;99.90;;;;;;6120734;23;20030;-87
2023/05/15 04:59:15;;;;;;;12.85;10.35;;;9.50;99.90;;;;;;6100584;23;20364;-88
2023/05/15 05:02:03;;;;;;;14.48;8.75;;;9.50;99.90;;;;;;6120439;23;20432;-88
2023/05/15 05:04:50;;;;;;;11.77;9.73;;;9.50;99.90;;;;;;6102193;23;20030;-88
2023/05/15 05:07:37;;;;;;;12.43;9.68;;;9.50;99.90;;;;;;6120547;23;20040;-88
2023/05/15 05:10:25;;;;;;;13.20;9.60;;;9.60;99.90;;;;;;6121359;23;20022;-89
2023/05/15 05:13:15;;;;;;;10.90;9.32;;;9.60;99.90;;;;;;6099733;23;20271;-87
2023/05/15 05:16:04;;;;;;;17.75;9.63;;;9.60;99.90;;;;;;6121311;23;20033;-88
2023/05/15 05:18:54;;;;;;;12.13;9.55;;;9.70;99.90;;;;;;6098816;23;20341;-87
2023/05/15 05:21:43;;;;;;;11.77;9.70;;;9.70;99.90;;;;;;6100624;23;20037;-86
2023/05/15 05:24:31;;;;;;;12.07;9.13;;;9.80;99.90;;;;;;6118974;23;20022;-87
2023/05/15 05:27:18;;;;;;;11.68;9.52;;;9.90;99.90;;;;;;6100884;23;20030;-86
2023/05/15 05:30:07;;;;;;;12.82;9.15;;;10.00;99.90;;;;;;6102707;23;20093;-86
2023/05/15 05:32:56;;;;;;;11.88;9.00;;;10.10;99.90;;;;;;6131945;23;20044;-84
2023/05/15 05:35:44;;;;;;;11.35;8.95;;;10.30;99.90;;;;;;6112386;23;20104;-86
2023/05/15 05:38:35;;;;;;;12.48;9.10;;;10.40;99.90;;;;;;6112882;23;20014;-85
2023/05/15 05:41:24;;;;;;;12.18;9.27;;;10.50;99.90;;;;;;6133395;23;20429;-86
2023/05/15 07:02:46;;;;;;;8.30;7.40;;;13.50;1.00;;;;;;6069797;23;20034;-86
2023/05/15 07:06:25;;;;;;;10.73;7.82;;;13.50;1.00;;;;;;6106447;23;20030;-87
2023/05/15 08:16:35;;;;;;;;;;;;;;;;;;;;;
2023/05/15 12:45:36;;;;;;;;;;;;;;;;;;;;;
2023/05/15 14:04:22;;;;;;;4.55;3.55;;;15.80;99.90;;;;;;6095604;23;20414;-85
2023/05/15 14:35:36;;;;;;;5.07;2.08;;;22.90;99.90;;;;;;6037094;23;20015;-88
2023/05/15 14:38:32;;;;;;;2.42;2.22;;;23.80;99.90;;;;;;6020712;23;20039;-87
2023/05/15 14:41:20;;;;;;;3.35;2.58;;;24.10;91.00;;;;;;6013345;23;20050;-88
2023/05/15 14:44:21;;;;;;;2.42;2.00;;;24.90;67.00;;;;;;6020347;23;20074;-90
2023/05/15 14:47:17;;;;;;;2.42;2.00;;;25.50;59.00;;;;;;6016298;23;20085;-88
2023/05/15 14:50:05;;;;;;;2.45;1.88;;;25.90;40.70;;;;;;6020206;23;20653;-89
2023/05/15 14:52:55;;;;;;;2.10;1.90;;;25.70;43.20;;;;;;6020541;23;20051;-88
2023/05/15 14:55:46;;;;;;;3.63;2.10;;;24.50;33.60;;;;;;6020623;23;20422;-87
2023/05/15 15:01:59;;;;;;;2.60;2.28;;;25.10;29.30;;;;;;6035724;23;20054;-89
2023/05/15 15:04:46;;;;;;;3.17;2.38;;;24.60;22.30;;;;;;6036614;23;20055;-91
2023/05/15 15:07:59;;;;;;;3.53;2.40;;;22.70;27.10;;;;;;6017286;23;20093;-90
2023/05/15 15:10:48;;;;;;;1.92;1.77;;;23.00;31.10;;;;;;6019184;23;20031;-90
2023/05/15 15:13:38;;;;;;;6.47;2.47;;;24.30;20.70;;;;;;6021301;23;20390;-93
2023/05/15 15:16:25;;;;;;;8.00;2.22;;;23.90;21.90;;;;;;6038177;23;20106;-89
2023/05/15 15:19:13;;;;;;;2.17;1.85;;;23.10;16.60;;;;;;6034811;23;20038;-90
2023/05/15 15:22:04;;;;;;;4.97;2.05;;;22.30;12.80;;;;;;6034542;23;20023;-91
2023/05/15 15:24:51;;;;;;;3.85;1.90;;;22.60;9.80;;;;;;6016433;23;20027;-91
2023/05/15 15:27:39;;;;;;;2.92;1.83;;;23.50;2.60;;;;;;6016353;23;20042;-89
2023/05/15 15:30:27;;;;;;;2.97;2.25;;;22.90;2.10;;;;;;6036120;23;20113;-92
2023/05/15 15:33:14;;;;;;;4.60;2.47;;;22.00;1.00;;;;;;6014752;23;20042;-90
2023/05/15 15:36:04;;;;;;;3.67;2.55;;;21.40;1.00;;;;;;6054440;23;20094;-88
2023/05/15 15:38:52;;;;;;;9.50;2.67;;;21.40;1.00;;;;;;6036358;23;20027;-91
2023/05/15 15:41:39;;;;;;;2.55;2.35;;;20.60;10.90;;;;;;6034417;23;20020;-89
2023/05/15 15:44:32;;;;;;;5.85;1.90;;;20.80;17.70;;;;;;6036435;23;20034;-92
2023/05/15 15:47:22;;;;;;;2.60;2.10;;;20.70;23.50;;;;;;6035918;23;20051;-92
2023/05/15 15:50:10;;;;;;;2.47;2.28;;;19.90;25.80;;;;;;6035012;23;20063;-91
2023/05/15 15:52:57;;;;;;;2.97;2.63;;;18.70;32.90;;;;;;6035567;23;20109;-91
2023/05/15 15:55:47;;;;;;;3.05;2.75;;;18.10;57.10;;;;;;6036797;23;20045;-90
2023/05/15 15:58:35;;;;;;;3.90;2.92;;;17.60;65.40;;;;;;6054122;23;20055;-90
2023/05/15 16:01:26;;;;;;;3.70;3.00;;;17.40;67.50;;;;;;6036731;23;20055;-91
2023/05/15 16:04:16;;;;;;;3.45;3.15;;;17.10;77.30;;;;;;6053484;23;20035;-90
2023/05/15 16:07:04;;;;;;;6.00;3.20;;;17.00;90.00;;;;;;6036195;23;20035;-90
2023/05/15 16:09:52;;;;;;;4.65;4.07;;;16.90;91.40;;;;;;6037674;23;20027;-90
2023/05/15 16:12:57;;;;;;;7.68;3.53;;;16.70;91.20;;;;;;6054734;23;20423;-88
2023/05/15 16:15:47;;;;;;;8.27;3.05;;;16.70;93.10;;;;;;6061166;23;20035;-91
2023/05/15 16:18:41;;;;;;;4.78;3.88;;;16.60;96.00;;;;;;6036300;23;20082;-92
2023/05/15 16:21:30;;;;;;;4.25;3.50;;;16.50;90.50;;;;;;6039980;23;20058;-92
2023/05/15 16:24:17;;;;;;;7.15;4.03;;;16.30;96.10;;;;;;6055386;23;20034;-91
2023/05/15 16:27:07;;;;;;;6.10;3.78;;;16.30;99.90;;;;;;6035618;23;20327;-89
2023/05/15 16:29:55;;;;;;;4.75;3.92;;;16.40;99.90;;;;;;6037681;23;20114;-92
2023/05/15 16:32:43;;;;;;;6.38;4.00;;;16.60;99.90;;;;;;6033810;23;20451;-91
2023/05/15 16:35:35;;;;;;;9.05;5.00;;;17.00;99.90;;;;;;6033159;23;20042;-89
2023/05/15 16:38:25;;;;;;;6.00;4.97;;;17.00;99.90;;;;;;6037172;23;20027;-91
2023/05/15 16:41:13;;;;;;;5.50;4.63;;;17.10;99.90;;;;;;6035450;23;20047;-90
2023/05/15 16:44:01;;;;;;;7.05;5.22;;;17.10;99.90;;;;;;6057049;23;20418;-92
2023/05/15 16:46:48;;;;;;;7.25;4.78;;;16.90;99.90;;;;;;6058165;23;20054;-91
2023/05/15 16:49:36;;;;;;;6.72;4.93;;;16.50;99.90;;;;;;6072561;23;20032;-91
2023/05/15 16:52:23;;;;;;;6.30;4.53;;;16.30;99.90;;;;;;6061472;23;20365;-91
2023/05/15 16:55:13;;;;;;;5.97;4.72;;;16.20;99.90;;;;;;6042325;23;20031;-93
2023/05/15 16:58:06;;;;;;;6.68;4.78;;;16.30;99.90;;;;;;6041024;23;20461;-92
2023/05/15 17:00:53;;;;;;;5.18;4.28;;;16.30;99.90;;;;;;6039739;23;20042;-90
2023/05/15 17:03:41;;;;;;;5.95;4.00;;;16.30;99.90;;;;;;6040268;23;20027;-91
2023/05/15 17:06:29;;;;;;;4.88;4.15;;;16.30;99.90;;;;;;6035283;23;20426;-90
2023/05/15 17:09:16;;;;;;;6.53;3.83;;;16.20;99.90;;;;;;6034589;23;20680;-90
2023/05/15 17:12:04;;;;;;;5.85;3.63;;;16.30;99.90;;;;;;6033095;23;20410;-90
2023/05/15 17:14:52;;;;;;;5.43;3.53;;;16.30;99.90;;;;;;6035873;23;20031;-89
2023/05/15 17:17:49;;;;;;;6.13;3.55;;;16.40;99.90;;;;;;6035346;23;20801;-91
2023/05/15 17:20:36;;;;;;;5.30;3.45;;;16.30;99.90;;;;;;6035599;23;20023;-90
2023/05/15 17:23:26;;;;;;;4.50;3.38;;;16.30;99.90;;;;;;6054076;23;20027;-92
2023/05/15 17:26:13;;;;;;;4.93;3.60;;;16.30;99.90;;;;;;6034220;23;20102;-92
2023/05/15 17:29:01;;;;;;;4.38;3.60;;;16.20;99.90;;;;;;6034552;23;20041;-90
2023/05/15 17:31:48;;;;;;;5.55;4.43;;;16.30;99.90;;;;;;6035382;23;20028;-91
2023/05/15 17:34:39;;;;;;;5.75;3.80;;;16.30;99.90;;;;;;6035335;23;20027;-92
2023/05/15 17:37:26;;;;;;;7.57;4.57;;;16.30;99.90;;;;;;6038599;23;20059;-92
2023/05/15 17:40:13;;;;;;;5.90;3.85;;;16.00;97.70;;;;;;6052883;23;20034;-91
2023/05/15 17:43:03;;;;;;;5.00;4.20;;;15.90;99.20;;;;;;6036111;23;20111;-89
2023/05/15 17:46:00;;;;;;;5.80;4.38;;;15.70;99.90;;;;;;6036644;23;20708;-90
2023/05/15 17:48:48;;;;;;;5.85;4.28;;;15.60;99.90;;;;;;6038828;23;20027;-91
2023/05/15 17:51:35;;;;;;;5.45;4.30;;;15.60;99.90;;;;;;6061224;23;20463;-91
2023/05/15 17:54:25;;;;;;;5.53;4.03;;;15.50;99.90;;;;;;6058304;23;20078;-89
2023/05/15 17:57:22;;;;;;;9.57;4.97;;;15.40;99.90;;;;;;6040228;23;20027;-91
2023/05/15 18:00:12;;;;;;;7.20;4.35;;;15.40;99.90;;;;;;6039597;23;20034;-90
2023/05/15 18:03:00;;;;;;;6.35;3.65;;;15.30;99.90;;;;;;6039532;23;20078;-92
2023/05/15 18:05:51;;;;;;;5.22;3.50;;;15.40;99.90;;;;;;6041396;23;20023;-92
2023/05/15 18:08:40;;;;;;;7.15;3.70;;;15.30;99.90;;;;;;6062270;23;20162;-92
2023/05/15 18:11:27;;;;;;;4.20;3.80;;;15.20;99.90;;;;;;6037214;23;20035;-90
2023/05/15 18:14:15;;;;;;;3.95;3.17;;;15.10;99.90;;;;;;6060252;23;20104;-92
2023/05/15 18:17:15;;;;;;;4.82;3.35;;;15.00;99.90;;;;;;6037514;23;20130;-92
2023/05/15 18:20:04;;;;;;;6.50;3.63;;;14.90;99.90;;;;;;6037002;23;20024;-90
2023/05/15 18:22:54;;;;;;;9.13;3.90;;;14.70;99.90;;;;;;6039757;23;20103;-92
2023/05/15 18:25:42;;;;;;;4.95;3.42;;;14.70;99.90;;;;;;6035987;23;20043;-93
2023/05/15 18:28:29;;;;;;;4.82;4.28;;;14.60;99.90;;;;;;6058958;23;20382;-91
2023/05/15 18:31:29;;;;;;;7.43;4.40;;;14.40;99.90;;;;;;6037655;23;20032;-92
2023/05/15 18:34:17;;;;;;;5.35;4.20;;;14.30;99.90;;;;;;6034164;23;20348;-92
2023/05/15 18:37:06;;;;;;;7.00;5.40;;;14.20;99.90;;;;;;6040998;23;20087;-91
2023/05/15 18:39:57;;;;;;;7.10;5.68;;;14.00;99.90;;;;;;6060645;23;20042;-89
2023/05/15 18:42:48;;;;;;;8.77;5.60;;;14.00;99.90;;;;;;6070682;23;20058;-91
2023/05/15 18:45:36;;;;;;;7.50;5.68;;;13.90;99.90;;;;;;6050428;23;20027;-90
2023/05/15 18:48:26;;;;;;;7.57;5.50;;;13.80;99.90;;;;;;6040310;23;20032;-91
2023/05/15 18:51:13;;;;;;;7.90;5.75;;;13.70;99.90;;;;;;6061781;23;20023;-91
2023/05/15 18:54:01;;;;;;;6.88;5.38;;;13.70;99.90;;;;;;6055050;23;20019;-91
2023/05/15 18:56:49;;;;;;;10.90;5.70;;;13.60;99.90;;;;;;6042631;23;20419;-90
2023/05/15 18:59:36;;;;;;;9.20;6.43;;;13.50;99.90;;;;;;6036916;23;20081;-91
2023/05/15 19:02:24;;;;;;;8.48;5.47;;;13.50;99.90;;;;;;6040205;23;20113;-92
2023/05/15 19:05:12;;;;;;;6.13;5.43;;;13.40;99.90;;;;;;6039976;23;20028;-91
2023/05/15 19:07:59;;;;;;;8.88;5.68;;;13.40;1.00;;;;;;6039260;23;20070;-90
2023/05/15 19:10:49;;;;;;;7.57;6.28;;;13.30;1.00;;;;;;6038169;23;20031;-89
2023/05/15 19:13:37;;;;;;;13.90;7.20;;;13.30;1.00;;;;;;6038276;23;20047;-89
2023/05/15 19:16:27;;;;;;;10.30;7.30;;;13.20;1.00;;;;;;6036060;23;20027;-89
2023/05/15 19:19:15;;;;;;;12.55;8.30;;;13.20;1.00;;;;;;6037429;23;20038;-88
2023/05/15 19:22:05;;;;;;;8.82;7.32;;;13.10;1.00;;;;;;6037058;23;20119;-90
2023/05/15 19:24:52;;;;;;;11.45;7.45;;;13.10;1.00;;;;;;6037864;23;20034;-89
2023/05/15 19:27:40;;;;;;;10.43;6.95;;;13.00;1.00;;;;;;6036784;23;20027;-89
2023/05/15 19:30:27;;;;;;;11.45;6.70;;;12.90;1.00;;;;;;6038237;23;20031;-87
2023/05/15 19:33:16;;;;;;;10.00;6.72;;;12.90;1.00;;;;;;6035896;23;20446;-87
2023/05/15 19:36:03;;;;;;;11.00;6.55;;;12.80;1.00;;;;;;6037985;23;20117;-88
2023/05/15 19:38:51;;;;;;;14.77;7.35;;;12.80;1.00;;;;;;6040386;23;20031;-89
2023/05/15 19:41:40;;;;;;;9.85;7.65;;;12.70;1.00;;;;;;6039783;23;20028;-89
2023/05/15 19:44:27;;;;;;;10.02;7.45;;;12.80;1.00;;;;;;6053620;23;20130;-88
2023/05/15 19:47:17;;;;;;;12.50;7.13;;;12.70;22.50;;;;;;6039518;23;20027;-85
2023/05/15 19:50:05;;;;;;;8.85;7.72;;;12.70;48.50;;;;;;6039713;23;20434;-87
2023/05/15 19:53:02;;;;;;;8.07;7.20;;;12.60;66.60;;;;;;6037791;23;20033;-85
2023/05/15 19:55:52;;;;;;;9.55;7.10;;;12.60;99.90;;;;;;6043169;23;20035;-86
2023/05/15 19:58:42;;;;;;;11.75;7.82;;;12.60;99.90;;;;;;6035338;23;20474;-88
2023/05/15 20:01:29;;;;;;;11.25;7.95;;;12.50;99.90;;;;;;6054650;23;20027;-90
2023/05/15 20:04:17;;;;;;;9.15;7.47;;;12.40;99.90;;;;;;6036519;23;20058;-88
2023/05/15 20:07:05;;;;;;;7.70;6.88;;;12.40;99.90;;;;;;6036865;23;20027;-86
2023/05/15 20:09:54;;;;;;;9.13;7.05;;;12.30;99.90;;;;;;6039947;23;20050;-89
2023/05/15 20:12:41;;;;;;;11.43;7.30;;;12.30;99.90;;;;;;6038904;23;20027;-88
2023/05/15 20:15:32;;;;;;;12.15;7.43;;;12.30;99.90;;;;;;6036658;23;20027;-84
2023/05/15 20:18:20;;;;;;;7.97;6.65;;;12.20;99.90;;;;;;6039103;23;20035;-88
2023/05/15 20:21:10;;;;;;;10.73;7.38;;;12.10;99.90;;;;;;6042488;23;20030;-86
2023/05/15 20:23:58;;;;;;;10.25;7.38;;;12.00;99.90;;;;;;6040362;23;20031;-88
2023/05/15 20:26:47;;;;;;;8.10;6.78;;;12.00;99.90;;;;;;6037273;23;20023;-87
2023/05/15 20:29:37;;;;;;;9.68;7.53;;;12.00;99.90;;;;;;6038155;23;20672;-87
2023/05/15 20:32:25;;;;;;;12.55;6.97;;;12.00;99.90;;;;;;6048320;23;20058;-86
2023/05/15 20:35:13;;;;;;;8.73;6.88;;;12.00;99.90;;;;;;6053352;23;20419;-89
2023/05/15 20:38:03;;;;;;;8.15;6.75;;;12.00;99.90;;;;;;6049264;23;20034;-87
2023/05/15 20:40:51;;;;;;;7.88;6.32;;;12.00;99.90;;;;;;6035343;23;20422;-87
2023/05/15 20:43:39;;;;;;;8.02;6.35;;;12.00;99.90;;;;;;6032661;23;20032;-88
2023/05/15 20:46:29;;;;;;;8.25;5.97;;;12.00;99.90;;;;;;6035137;23;20031;-87
2023/05/15 20:49:17;;;;;;;7.03;5.97;;;12.00;99.90;;;;;;6036827;23;20024;-87
2023/05/15 20:52:04;;;;;;;9.02;5.45;;;12.00;99.90;;;;;;6034785;23;20035;-86
2023/05/15 20:54:54;;;;;;;6.68;5.22;;;12.00;99.90;;;;;;6037107;23;20031;-87
2023/05/15 20:57:43;;;;;;;7.00;5.78;;;11.90;99.90;;;;;;6036940;23;20038;-86
2023/05/15 21:00:33;;;;;;;6.85;5.85;;;11.90;99.90;;;;;;6036165;23;20027;-91
2023/05/15 21:03:20;;;;;;;8.00;6.13;;;12.00;99.90;;;;;;6037255;23;20024;-89
2023/05/15 21:06:12;;;;;;;9.00;6.22;;;12.00;99.90;;;;;;6034992;23;20062;-87
2023/05/15 21:08:59;;;;;;;10.38;6.50;;;12.00;99.90;;;;;;6033778;23;20424;-89
2023/05/15 21:11:47;;;;;;;6.55;5.40;;;12.00;99.90;;;;;;6035650;23;20446;-90
2023/05/15 21:14:35;;;;;;;7.10;6.05;;;11.90;99.90;;;;;;6036253;23;20039;-88
2023/05/15 21:17:22;;;;;;;7.47;6.25;;;11.90;99.90;;;;;;6034705;23;20038;-89
2023/05/15 21:20:10;;;;;;;6.85;6.07;;;11.80;99.90;;;;;;6034936;23;20032;-90
2023/05/15 21:22:58;;;;;;;10.27;6.47;;;11.80;99.90;;;;;;6035493;23;20039;-89
2023/05/15 21:25:46;;;;;;;11.63;7.20;;;11.80;1.00;;;;;;6038451;23;20110;-90
2023/05/15 21:28:33;;;;;;;9.20;7.40;;;11.70;1.00;;;;;;6034986;23;20020;-89
2023/05/15 21:31:21;;;;;;;10.52;7.90;;;11.70;99.90;;;;;;6036362;23;20027;-89
2023/05/15 21:34:13;;;;;;;9.82;7.75;;;11.60;99.90;;;;;;6036658;23;20038;-91
2023/05/15 21:37:00;;;;;;;10.27;8.05;;;11.50;99.90;;;;;;6038899;23;20125;-88
2023/05/15 21:39:50;;;;;;;11.20;8.05;;;11.40;1.00;;;;;;6036914;23;20113;-92
2023/05/15 21:42:37;;;;;;;10.52;7.85;;;11.30;52.00;;;;;;6038102;23;20120;-86
2023/05/15 21:45:28;;;;;;;10.07;7.63;;;11.30;99.90;;;;;;6069585;23;20023;-87
2023/05/15 21:48:15;;;;;;;8.52;7.60;;;11.20;99.90;;;;;;6040193;23;20039;-88
2023/05/15 21:51:02;;;;;;;12.32;8.55;;;11.20;99.90;;;;;;6038803;23;20495;-91
2023/05/15 21:54:18;;;;;;;13.23;8.88;;;11.20;99.90;;;;;;6049429;23;20031;-88
2023/05/15 21:57:07;;;;;;;11.68;9.88;;;11.20;1.00;;;;;;6043141;23;20323;-90
2023/05/15 21:59:54;;;;;;;11.13;9.70;;;11.20;1.00;;;;;;6057290;23;20084;-87
2023/05/15 22:02:42;;;;;;;12.18;8.68;;;11.20;99.90;;;;;;6036584;23;20027;-91
2023/05/15 22:05:29;;;;;;;11.65;8.90;;;11.20;99.90;;;;;;6036568;23;20023;-88
2023/05/15 22:08:20;;;;;;;12.13;8.02;;;11.20;99.90;;;;;;6035344;23;20434;-90
2023/05/15 22:11:12;;;;;;;8.57;7.65;;;11.30;45.60;;;;;;6035049;23;20039;-90
2023/05/15 22:14:00;;;;;;;8.60;7.68;;;11.40;1.00;;;;;;6035061;23;20031;-89
2023/05/15 22:16:47;;;;;;;9.30;7.60;;;11.40;1.00;;;;;;6037523;23;20032;-89
2023/05/15 22:19:34;;;;;;;8.32;7.43;;;11.30;1.00;;;;;;6037959;23;20041;-91
2023/05/15 22:22:25;;;;;;;10.63;7.47;;;11.30;99.90;;;;;;6038994;23;20031;-87
2023/05/15 22:25:12;;;;;;;8.55;7.00;;;11.30;99.90;;;;;;6036440;23;20031;-89
2023/05/15 22:27:59;;;;;;;8.05;7.25;;;11.30;99.90;;;;;;6038634;23;20035;-87
2023/05/15 22:30:55;;;;;;;11.32;6.68;;;11.40;99.90;;;;;;6041750;23;20087;-88
2023/05/15 22:33:42;;;;;;;9.05;7.07;;;11.40;99.90;;;;;;6066954;23;20035;-90
2023/05/15 22:36:29;;;;;;;8.85;7.32;;;11.40;99.90;;;;;;6038865;23;20086;-90
2023/05/15 22:39:16;;;;;;;9.98;6.97;;;11.40;99.90;;;;;;6039813;23;20027;-87
2023/05/15 22:42:05;;;;;;;10.05;7.07;;;11.40;76.10;;;;;;6041524;23;20114;-90
2023/05/15 22:44:56;;;;;;;10.15;7.00;;;11.40;1.00;;;;;;6045380;23;20027;-90
2023/05/15 22:47:43;;;;;;;7.75;6.55;;;11.40;1.00;;;;;;6039792;23;20032;-90
2023/05/15 22:50:30;;;;;;;7.80;6.60;;;11.40;1.00;;;;;;6035226;23;20046;-88
2023/05/15 22:53:18;;;;;;;8.77;6.43;;;11.40;1.00;;;;;;6033905;23;20036;-90
2023/05/15 22:56:05;;;;;;;8.00;6.78;;;11.40;1.00;;;;;;6037165;23;20383;-88
2023/05/15 22:58:53;;;;;;;8.98;7.05;;;11.30;1.00;;;;;;6038270;23;20043;-87
2023/05/15 23:01:41;;;;;;;10.00;6.88;;;11.30;1.00;;;;;;6036474;23;20031;-91
2023/05/15 23:04:28;;;;;;;7.43;6.63;;;11.30;1.00;;;;;;6034153;23;20031;-91
2023/05/15 23:07:16;;;;;;;8.65;7.25;;;11.30;1.00;;;;;;6035786;23;20038;-91
2023/05/15 23:10:03;;;;;;;7.60;6.85;;;11.30;15.10;;;;;;6033572;23;20038;-88
2023/05/15 23:12:51;;;;;;;11.55;8.18;;;11.30;80.80;;;;;;6037536;23;20035;-87
2023/05/15 23:15:38;;;;;;;9.95;8.10;;;11.20;99.90;;;;;;6034466;23;20038;-86
2023/05/15 23:18:25;;;;;;;11.52;7.85;;;11.20;99.90;;;;;;6035294;23;20398;-87
2023/05/15 23:21:13;;;;;;;10.82;8.43;;;11.20;99.90;;;;;;6035819;23;20042;-87